Time;durP1;ratioP1;P1;durP2;ratioP2;P2;SDS_P1;SDS_P2;PMS_P1;PMS_P2;Temp;Humidity;BMP_temperature;BMP_pressure;BME280_temperature;BME280_humidity;BME280_pressure;Samples;Min_cycle;Max_cycle;Signal;HPM_P1;HPM_P2
2023/08/04 00:00:22;;;;;;;6.10;2.53;;;;;;;;;;5047750;28;20069;-76
2023/08/04 00:02:48;;;;;;;6.13;2.60;;;;;;;;;;5032329;28;20049;-76
2023/08/04 00:05:14;;;;;;;8.45;2.50;;;;;;;;;;5032861;28;20042;-76
2023/08/04 00:07:42;;;;;;;10.85;3.15;;;;;;;;;;5046342;28;20424;-76
2023/08/04 00:10:08;;;;;;;5.32;3.00;;;;;;;;;;5035304;28;20048;-77
2023/08/04 00:12:34;;;;;;;6.18;2.50;;;;;;;;;;5054548;28;20403;-76
2023/08/04 00:15:01;;;;;;;5.82;2.55;;;;;;;;;;5056634;28;20063;-76
2023/08/04 00:17:27;;;;;;;5.65;2.33;;;;;;;;;;5038523;28;20044;-76
2023/08/04 00:19:54;;;;;;;8.02;2.80;;;;;;;;;;5036198;28;20045;-76
2023/08/04 00:22:20;;;;;;;6.63;2.63;;;;;;;;;;5039406;28;20392;-77
2023/08/04 00:24:47;;;;;;;6.28;2.78;;;;;;;;;;5040996;28;20041;-77
2023/08/04 00:27:13;;;;;;;7.53;3.10;;;;;;;;;;5050494;28;20073;-77
2023/08/04 00:29:39;;;;;;;6.35;2.83;;;;;;;;;;5055121;28;20037;-76
2023/08/04 00:32:05;;;;;;;8.57;2.63;;;;;;;;;;5038661;28;20117;-76
2023/08/04 00:34:31;;;;;;;5.70;2.17;;;;;;;;;;5044730;28;20516;-77
2023/08/04 00:36:57;;;;;;;5.85;2.10;;;;;;;;;;5046907;28;20155;-76
2023/08/04 00:39:24;;;;;;;5.75;1.90;;;;;;;;;;5044756;28;20424;-77
2023/08/04 00:41:50;;;;;;;5.13;1.90;;;;;;;;;;5044913;28;20045;-76
2023/08/04 00:44:16;;;;;;;3.40;1.70;;;;;;;;;;5040263;28;20500;-76
2023/08/04 00:46:42;;;;;;;5.38;1.80;;;;;;;;;;5043889;28;20068;-76
2023/08/04 00:49:09;;;;;;;4.72;2.10;;;;;;;;;;5045517;28;20037;-76
2023/08/04 00:51:35;;;;;;;5.18;2.00;;;;;;;;;;5042910;28;20120;-76
2023/08/04 00:54:02;;;;;;;3.58;1.73;;;;;;;;;;5050505;28;20048;-76
2023/08/04 00:56:28;;;;;;;4.00;1.63;;;;;;;;;;5043464;28;20124;-76
2023/08/04 00:58:55;;;;;;;6.22;2.17;;;;;;;;;;5047865;28;20053;-76
2023/08/04 01:01:21;;;;;;;4.18;1.98;;;;;;;;;;5054685;28;20052;-77
2023/08/04 01:03:47;;;;;;;3.38;1.80;;;;;;;;;;5040662;28;20056;-76
2023/08/04 01:06:22;;;;;;;5.30;2.17;;;;;;;;;;5035166;28;20060;-76
2023/08/04 01:09:10;;;;;;;5.37;2.17;;;;;;;;;;5046068;28;20046;-76
2023/08/04 01:11:43;;;;;;;5.25;2.38;;;;;;;;;;5041082;28;20488;-76
2023/08/04 01:14:10;;;;;;;4.63;2.53;;;;;;;;;;5041131;28;20171;-76
2023/08/04 01:16:36;;;;;;;5.03;2.50;;;;;;;;;;5052448;28;20483;-76
2023/08/04 01:19:02;;;;;;;7.47;3.05;;;;;;;;;;5035340;28;20049;-76
2023/08/04 01:21:38;;;;;;;7.90;3.35;;;;;;;;;;5035180;28;20136;-76
2023/08/04 01:24:04;;;;;;;8.98;3.00;;;;;;;;;;5045883;28;20041;-76
2023/08/04 01:26:31;;;;;;;6.20;3.33;;;;;;;;;;5053507;28;20041;-76
2023/08/04 01:28:57;;;;;;;5.32;3.22;;;;;;;;;;5034862;28;20500;-76
2023/08/04 01:31:24;;;;;;;4.50;2.83;;;;;;;;;;5034971;28;20053;-76
2023/08/04 01:33:50;;;;;;;4.32;2.70;;;;;;;;;;5045932;28;20041;-76
2023/08/04 01:36:16;;;;;;;9.38;2.97;;;;;;;;;;5036123;28;20041;-76
2023/08/04 01:38:42;;;;;;;6.85;3.03;;;;;;;;;;5041223;28;20057;-76
2023/08/04 01:41:08;;;;;;;4.85;2.67;;;;;;;;;;5039112;28;20068;-76
2023/08/04 01:43:34;;;;;;;4.53;2.42;;;;;;;;;;5034358;28;20046;-76
2023/08/04 01:46:00;;;;;;;5.40;2.85;;;;;;;;;;5034922;28;20415;-76
2023/08/04 01:48:27;;;;;;;6.55;2.70;;;;;;;;;;5039276;28;20037;-76
2023/08/04 01:50:53;;;;;;;6.63;2.90;;;;;;;;;;5052976;28;20139;-76
2023/08/04 01:53:19;;;;;;;5.72;2.92;;;;;;;;;;5043079;28;20049;-76
2023/08/04 01:55:47;;;;;;;6.10;2.75;;;;;;;;;;5034402;28;20064;-76
2023/08/04 01:58:13;;;;;;;5.57;2.72;;;;;;;;;;5034528;28;20144;-76
2023/08/04 02:00:39;;;;;;;5.78;2.85;;;;;;;;;;5050043;28;20055;-76
2023/08/04 02:03:05;;;;;;;6.20;2.75;;;;;;;;;;5047766;28;20050;-76
2023/08/04 02:05:32;;;;;;;4.70;2.78;;;;;;;;;;5050096;28;20491;-76
2023/08/04 02:07:58;;;;;;;7.57;3.25;;;;;;;;;;5054109;28;20478;-76
2023/08/04 02:10:24;;;;;;;6.43;3.03;;;;;;;;;;5052771;28;20044;-76
2023/08/04 02:12:50;;;;;;;6.30;3.15;;;;;;;;;;5054142;28;20045;-76
2023/08/04 02:15:16;;;;;;;4.50;2.67;;;;;;;;;;5053559;28;20044;-76
2023/08/04 02:17:42;;;;;;;4.40;2.08;;;;;;;;;;5049194;28;20045;-76
2023/08/04 02:20:09;;;;;;;4.80;2.10;;;;;;;;;;5053252;28;20052;-76
2023/08/04 02:22:35;;;;;;;3.67;2.13;;;;;;;;;;5050794;28;20492;-76
2023/08/04 02:25:01;;;;;;;4.10;2.22;;;;;;;;;;5052058;28;20408;-76
2023/08/04 02:27:27;;;;;;;5.18;2.05;;;;;;;;;;5053554;28;20036;-76
2023/08/04 02:29:53;;;;;;;3.13;2.20;;;;;;;;;;5052699;28;20444;-76
2023/08/04 02:32:19;;;;;;;3.80;2.13;;;;;;;;;;5051159;28;20041;-76
2023/08/04 02:34:45;;;;;;;4.55;2.10;;;;;;;;;;5043940;28;20049;-76
2023/08/04 02:37:11;;;;;;;6.78;2.88;;;;;;;;;;5034677;28;20037;-76
2023/08/04 02:39:37;;;;;;;3.67;2.50;;;;;;;;;;5042080;28;20506;-76
2023/08/04 02:42:03;;;;;;;4.43;2.40;;;;;;;;;;5048457;28;20453;-76
2023/08/04 02:44:29;;;;;;;6.20;2.70;;;;;;;;;;5049380;28;20396;-76
2023/08/04 02:46:56;;;;;;;4.50;2.90;;;;;;;;;;5034407;28;20124;-76
2023/08/04 02:49:22;;;;;;;3.83;2.80;;;;;;;;;;5041547;28;20412;-76
2023/08/04 02:51:48;;;;;;;4.65;2.38;;;;;;;;;;5047014;28;20052;-76
2023/08/04 02:54:14;;;;;;;4.00;2.53;;;;;;;;;;5042059;28;20044;-76
2023/08/04 02:56:40;;;;;;;5.25;2.63;;;;;;;;;;5044703;28;20071;-76
2023/08/04 02:59:06;;;;;;;5.18;2.65;;;;;;;;;;5033348;28;20120;-76
2023/08/04 03:01:32;;;;;;;6.30;2.70;;;;;;;;;;5044204;28;20120;-76
2023/08/04 03:03:58;;;;;;;4.68;2.55;;;;;;;;;;5052424;28;20048;-76
2023/08/04 03:06:24;;;;;;;3.70;2.30;;;;;;;;;;5047041;28;20034;-76
2023/08/04 03:08:50;;;;;;;5.55;2.85;;;;;;;;;;5044947;28;20128;-76
2023/08/04 03:11:16;;;;;;;6.28;2.88;;;;;;;;;;5042353;28;20175;-76
2023/08/04 03:13:42;;;;;;;4.55;2.50;;;;;;;;;;5036916;28;20171;-76
2023/08/04 03:16:08;;;;;;;5.70;3.08;;;;;;;;;;5033738;28;20038;-76
2023/08/04 03:18:34;;;;;;;6.13;3.60;;;;;;;;;;5047316;28;20044;-76
2023/08/04 03:21:03;;;;;;;4.85;2.92;;;;;;;;;;5051520;28;20049;-76
2023/08/04 03:23:30;;;;;;;8.63;3.20;;;;;;;;;;5048977;28;20040;-76
2023/08/04 03:25:56;;;;;;;5.28;2.90;;;;;;;;;;5052346;28;20041;-75
2023/08/04 03:28:22;;;;;;;6.25;2.75;;;;;;;;;;5053067;28;20124;-75
2023/08/04 03:30:48;;;;;;;6.28;3.00;;;;;;;;;;5051335;28;20045;-75
2023/08/04 03:33:14;;;;;;;6.28;2.78;;;;;;;;;;5047960;28;20060;-75
2023/08/04 03:35:40;;;;;;;6.15;3.78;;;;;;;;;;5053075;28;20124;-75
2023/08/04 03:38:06;;;;;;;6.50;3.03;;;;;;;;;;5039260;28;20389;-75
2023/08/04 03:40:32;;;;;;;7.60;3.20;;;;;;;;;;5032508;28;20496;-75
2023/08/04 03:42:58;;;;;;;3.78;2.88;;;;;;;;;;5038836;28;20059;-76
2023/08/04 03:45:24;;;;;;;6.72;3.40;;;;;;;;;;5044270;28;20060;-75
2023/08/04 03:47:50;;;;;;;5.57;3.45;;;;;;;;;;5051436;28;20459;-75
2023/08/04 03:50:16;;;;;;;4.50;3.50;;;;;;;;;;5044843;28;20342;-75
2023/08/04 03:52:42;;;;;;;7.10;3.60;;;;;;;;;;5052926;28;20045;-75
2023/08/04 03:55:08;;;;;;;5.60;2.97;;;;;;;;;;5056852;28;20123;-75
2023/08/04 03:57:34;;;;;;;6.38;3.25;;;;;;;;;;5054427;28;20522;-75
2023/08/04 04:00:01;;;;;;;6.45;2.72;;;;;;;;;;5054242;28;20613;-75
2023/08/04 04:02:27;;;;;;;4.60;3.15;;;;;;;;;;5036491;28;20107;-75
2023/08/04 04:04:53;;;;;;;3.95;2.90;;;;;;;;;;5039745;28;20120;-75
2023/08/04 04:07:19;;;;;;;4.22;2.40;;;;;;;;;;5056653;28;20041;-75
2023/08/04 04:09:45;;;;;;;4.32;2.50;;;;;;;;;;5046848;28;20392;-75
2023/08/04 04:12:11;;;;;;;5.53;2.53;;;;;;;;;;5035868;28;20619;-75
2023/08/04 04:14:37;;;;;;;3.72;2.72;;;;;;;;;;5036447;28;20647;-75
2023/08/04 04:17:03;;;;;;;6.25;2.90;;;;;;;;;;5052014;28;20045;-75
2023/08/04 04:19:30;;;;;;;4.20;2.75;;;;;;;;;;5035843;28;20060;-75
2023/08/04 04:21:56;;;;;;;5.22;2.80;;;;;;;;;;5039516;28;20041;-75
2023/08/04 04:24:22;;;;;;;4.63;2.60;;;;;;;;;;5052143;28;20082;-77
2023/08/04 04:26:48;;;;;;;3.90;2.40;;;;;;;;;;5048004;28;20120;-75
2023/08/04 04:29:14;;;;;;;5.03;2.78;;;;;;;;;;5051311;28;20048;-75
2023/08/04 04:31:40;;;;;;;4.05;2.50;;;;;;;;;;5040155;28;20041;-75
2023/08/04 04:34:06;;;;;;;4.07;2.40;;;;;;;;;;5044909;28;20077;-75
2023/08/04 04:36:32;;;;;;;3.88;2.60;;;;;;;;;;5055474;28;20056;-75
2023/08/04 04:38:58;;;;;;;5.63;3.03;;;;;;;;;;5055729;28;20162;-75
2023/08/04 04:41:25;;;;;;;6.95;2.75;;;;;;;;;;5042035;28;20404;-75
2023/08/04 04:43:52;;;;;;;7.43;2.70;;;;;;;;;;5036285;28;20049;-75
2023/08/04 04:46:18;;;;;;;5.75;2.60;;;;;;;;;;5046257;28;20048;-75
2023/08/04 04:48:44;;;;;;;5.13;2.60;;;;;;;;;;5048010;28;20368;-75
2023/08/04 04:51:10;;;;;;;8.02;2.55;;;;;;;;;;5052913;28;20112;-75
2023/08/04 04:53:36;;;;;;;3.10;2.38;;;;;;;;;;5054770;28;20513;-75
2023/08/04 04:56:02;;;;;;;4.35;2.50;;;;;;;;;;5049068;28;20045;-76
2023/08/04 04:58:28;;;;;;;3.38;2.35;;;;;;;;;;5041241;28;20128;-75
2023/08/04 05:01:01;;;;;;;4.88;2.70;;;;;;;;;;5050869;28;20041;-75
2023/08/04 05:03:27;;;;;;;6.07;2.88;;;;;;;;;;5052646;28;20383;-76
2023/08/04 05:05:53;;;;;;;4.75;2.90;;;;;;;;;;5051401;28;20045;-75
2023/08/04 05:08:19;;;;;;;5.63;2.72;;;;;;;;;;5051315;28;20051;-75
2023/08/04 05:10:49;;;;;;;5.78;2.80;;;;;;;;;;5044632;28;20095;-75
2023/08/04 05:13:15;;;;;;;7.30;3.63;;;;;;;;;;5037577;28;20049;-75
2023/08/04 05:15:41;;;;;;;5.88;3.08;;;;;;;;;;5048971;28;20063;-75
2023/08/04 05:18:07;;;;;;;7.82;3.22;;;;;;;;;;5046657;28;20041;-75
2023/08/04 05:20:34;;;;;;;3.97;2.70;;;;;;;;;;5036549;28;20045;-75
2023/08/04 05:23:00;;;;;;;6.70;3.35;;;;;;;;;;5052190;28;20041;-76
2023/08/04 05:25:26;;;;;;;8.13;3.85;;;;;;;;;;5053497;28;20399;-76
2023/08/04 05:27:52;;;;;;;6.53;3.28;;;;;;;;;;5044564;28;20052;-75
2023/08/04 05:30:18;;;;;;;6.88;3.67;;;;;;;;;;5051656;28;20041;-76
2023/08/04 05:32:45;;;;;;;7.65;3.42;;;;;;;;;;5053189;28;20045;-77
2023/08/04 05:35:11;;;;;;;8.18;3.60;;;;;;;;;;5039156;28;20091;-76
2023/08/04 05:37:37;;;;;;;5.47;3.92;;;;;;;;;;5047877;28;20049;-75
2023/08/04 05:40:06;;;;;;;6.57;4.05;;;;;;;;;;5044465;28;20042;-75
2023/08/04 05:42:32;;;;;;;10.00;4.20;;;;;;;;;;5047782;28;20056;-75
2023/08/04 05:44:58;;;;;;;6.00;4.00;;;;;;;;;;5048194;28;20045;-75
2023/08/04 05:47:26;;;;;;;6.53;3.60;;;;;;;;;;5054260;28;20048;-75
2023/08/04 05:49:52;;;;;;;6.97;4.65;;;;;;;;;;5043109;28;20049;-75
2023/08/04 05:52:18;;;;;;;8.88;4.07;;;;;;;;;;5052563;28;20148;-75
2023/08/04 05:54:44;;;;;;;7.47;3.47;;;;;;;;;;5043611;28;20488;-75
2023/08/04 05:57:10;;;;;;;7.43;3.30;;;;;;;;;;5047904;28;20479;-75
2023/08/04 05:59:36;;;;;;;6.10;3.42;;;;;;;;;;5046639;28;20053;-75
2023/08/04 06:02:03;;;;;;;4.78;2.92;;;;;;;;;;5053674;28;20518;-75
2023/08/04 06:04:29;;;;;;;5.70;3.05;;;;;;;;;;5052772;28;20075;-76
2023/08/04 06:06:55;;;;;;;5.43;3.22;;;;;;;;;;5046011;28;20059;-75
2023/08/04 06:09:21;;;;;;;7.57;3.55;;;;;;;;;;5048281;28;20041;-75
2023/08/04 06:11:47;;;;;;;5.13;3.42;;;;;;;;;;5051746;28;20049;-75
2023/08/04 06:14:13;;;;;;;5.85;3.40;;;;;;;;;;5046232;28;20041;-75
2023/08/04 06:16:39;;;;;;;6.25;3.53;;;;;;;;;;5039462;28;20041;-75
2023/08/04 06:19:05;;;;;;;6.78;3.33;;;;;;;;;;5075995;28;20148;-75
2023/08/04 06:21:35;;;;;;;6.45;3.08;;;;;;;;;;5048848;28;20101;-75
2023/08/04 06:24:02;;;;;;;9.50;3.80;;;;;;;;;;5041029;28;20057;-75
2023/08/04 06:26:28;;;;;;;4.70;3.10;;;;;;;;;;5044550;28;20052;-75
2023/08/04 06:28:54;;;;;;;6.50;2.80;;;;;;;;;;5046730;28;20059;-75
2023/08/04 06:31:20;;;;;;;5.05;2.92;;;;;;;;;;5041613;28;20048;-75
2023/08/04 06:33:46;;;;;;;5.78;3.00;;;;;;;;;;5047477;28;20063;-75
2023/08/04 06:36:12;;;;;;;6.60;3.30;;;;;;;;;;5047232;28;20049;-75
2023/08/04 06:38:38;;;;;;;7.22;3.42;;;;;;;;;;5048184;28;20081;-75
2023/08/04 06:41:04;;;;;;;6.50;3.60;;;;;;;;;;5053640;28;20040;-75
2023/08/04 06:43:30;;;;;;;7.85;3.50;;;;;;;;;;5071003;28;20510;-75
2023/08/04 06:45:57;;;;;;;8.98;3.67;;;;;;;;;;5049498;28;20048;-75
2023/08/04 06:48:24;;;;;;;8.38;3.50;;;;;;;;;;5051591;28;20115;-75
2023/08/04 06:50:50;;;;;;;5.40;3.03;;;;;;;;;;5050956;28;20048;-75
2023/08/04 06:53:16;;;;;;;6.40;3.38;;;;;;;;;;5050123;28;20045;-75
2023/08/04 06:55:43;;;;;;;6.40;3.10;;;;;;;;;;5034599;28;20073;-75
2023/08/04 06:58:09;;;;;;;5.82;3.00;;;;;;;;;;5051080;28;20120;-75
2023/08/04 07:00:35;;;;;;;6.13;3.20;;;;;;;;;;5052176;28;20099;-76
2023/08/04 07:03:01;;;;;;;8.38;3.40;;;;;;;;;;5044502;28;20468;-75
2023/08/04 07:05:27;;;;;;;8.07;3.30;;;;;;;;;;5053284;28;20037;-75
2023/08/04 07:07:54;;;;;;;8.93;3.53;;;;;;;;;;5052924;28;20045;-75
2023/08/04 07:10:20;;;;;;;7.80;3.15;;;;;;;;;;5053210;28;20087;-75
2023/08/04 07:12:46;;;;;;;6.93;3.05;;;;;;;;;;5047219;28;20090;-76
2023/08/04 07:15:12;;;;;;;6.60;2.90;;;;;;;;;;5053040;28;20049;-76
2023/08/04 07:17:38;;;;;;;7.80;3.35;;;;;;;;;;5049784;28;20079;-75
2023/08/04 07:20:05;;;;;;;5.75;2.78;;;;;;;;;;5046405;28;20037;-76
2023/08/04 07:22:31;;;;;;;6.90;2.85;;;;;;;;;;5054776;28;20048;-76
2023/08/04 07:24:57;;;;;;;6.05;2.72;;;;;;;;;;5056226;28;20116;-76
2023/08/04 07:27:24;;;;;;;8.85;2.92;;;;;;;;;;5054464;28;20049;-75
2023/08/04 07:29:50;;;;;;;6.63;2.80;;;;;;;;;;5042090;28;20046;-76
2023/08/04 07:32:16;;;;;;;6.53;3.10;;;;;;;;;;5052772;28;20044;-75
2023/08/04 07:34:42;;;;;;;6.78;2.80;;;;;;;;;;5034337;28;20076;-75
2023/08/04 07:37:08;;;;;;;6.63;2.90;;;;;;;;;;5041044;28;20049;-75
2023/08/04 07:39:34;;;;;;;6.35;2.85;;;;;;;;;;5057129;28;20128;-75
2023/08/04 07:42:00;;;;;;;7.93;2.60;;;;;;;;;;5046717;28;20053;-76
2023/08/04 07:44:26;;;;;;;7.05;2.80;;;;;;;;;;5046308;28;20083;-76
2023/08/04 07:46:52;;;;;;;10.18;2.97;;;;;;;;;;5056709;28;20041;-75
2023/08/04 07:49:18;;;;;;;6.57;2.90;;;;;;;;;;5049098;28;20091;-75
2023/08/04 07:51:44;;;;;;;7.15;2.60;;;;;;;;;;5040280;28;20148;-76
2023/08/04 07:54:11;;;;;;;5.97;2.83;;;;;;;;;;5042326;28;20045;-76
2023/08/04 07:56:37;;;;;;;9.18;2.75;;;;;;;;;;5056484;28;20518;-76
2023/08/04 07:59:03;;;;;;;4.93;3.03;;;;;;;;;;5059435;28;20080;-76
2023/08/04 08:01:29;;;;;;;6.82;3.03;;;;;;;;;;5055442;28;20128;-76
2023/08/04 08:03:55;;;;;;;9.25;2.65;;;;;;;;;;5056398;28;20045;-76
2023/08/04 08:06:21;;;;;;;6.20;2.50;;;;;;;;;;5052449;28;20040;-76
2023/08/04 08:08:47;;;;;;;5.90;2.47;;;;;;;;;;5048197;28;20090;-76
2023/08/04 08:11:14;;;;;;;4.70;2.35;;;;;;;;;;5042974;28;20102;-76
2023/08/04 08:13:40;;;;;;;9.75;2.30;;;;;;;;;;5055782;28;20519;-76
2023/08/04 08:16:07;;;;;;;5.30;2.25;;;;;;;;;;5047084;28;20143;-76
2023/08/04 08:18:33;;;;;;;6.93;2.75;;;;;;;;;;5047205;28;20052;-76
2023/08/04 08:20:59;;;;;;;7.25;2.55;;;;;;;;;;5045021;28;20079;-77
2023/08/04 08:23:25;;;;;;;5.90;2.45;;;;;;;;;;5045485;28;20041;-77
2023/08/04 08:25:51;;;;;;;5.82;2.85;;;;;;;;;;5053384;28;20045;-77
2023/08/04 08:28:17;;;;;;;5.93;2.58;;;;;;;;;;5039144;28;20073;-77
2023/08/04 08:30:43;;;;;;;9.98;2.95;;;;;;;;;;5052810;28;20041;-76
2023/08/04 08:33:09;;;;;;;7.20;3.10;;;;;;;;;;5052096;28;20175;-76
2023/08/04 08:35:36;;;;;;;10.70;2.90;;;;;;;;;;5048788;28;20114;-76
2023/08/04 08:38:02;;;;;;;6.78;3.10;;;;;;;;;;5047082;28;20075;-77
2023/08/04 08:40:28;;;;;;;7.65;3.28;;;;;;;;;;5049211;28;20053;-77
2023/08/04 08:42:56;;;;;;;12.48;3.17;;;;;;;;;;5037730;28;20120;-77
2023/08/04 08:45:27;;;;;;;7.90;3.13;;;;;;;;;;5049895;28;20460;-77
2023/08/04 08:47:54;;;;;;;9.82;3.15;;;;;;;;;;5053476;28;20068;-79
2023/08/04 08:50:22;;;;;;;7.72;3.15;;;;;;;;;;5037033;28;20406;-77
2023/08/04 08:52:51;;;;;;;9.88;3.10;;;;;;;;;;5047254;28;20069;-77
2023/08/04 08:55:18;;;;;;;10.90;2.95;;;;;;;;;;5055751;28;20120;-77
2023/08/04 08:57:44;;;;;;;9.15;3.28;;;;;;;;;;5055283;28;20041;-77
2023/08/04 09:00:12;;;;;;;4.45;2.30;;;;;;;;;;5054253;28;20106;-77
2023/08/04 09:02:38;;;;;;;5.05;2.00;;;;;;;;;;5054885;28;20041;-77
2023/08/04 09:05:05;;;;;;;4.45;2.28;;;;;;;;;;5055306;28;20033;-77
2023/08/04 09:07:31;;;;;;;3.92;2.28;;;;;;;;;;5055513;28;20055;-77
2023/08/04 09:09:57;;;;;;;5.30;2.25;;;;;;;;;;5055359;28;20051;-77
2023/08/04 09:12:25;;;;;;;6.35;2.15;;;;;;;;;;5054901;28;20041;-77
2023/08/04 09:14:56;;;;;;;3.97;1.90;;;;;;;;;;5054687;28;20181;-77
2023/08/04 09:17:37;;;;;;;2.88;2.00;;;;;;;;;;5055216;28;20040;-77
2023/08/04 09:20:05;;;;;;;4.72;2.47;;;;;;;;;;5055021;28;20094;-77
2023/08/04 09:22:32;;;;;;;7.32;2.28;;;;;;;;;;5055087;28;20048;-77
2023/08/04 09:25:02;;;;;;;4.72;2.42;;;;;;;;;;5054162;28;20436;-77
2023/08/04 09:27:33;;;;;;;6.60;2.25;;;;;;;;;;5054741;28;20044;-77
2023/08/04 09:30:01;;;;;;;5.10;2.20;;;;;;;;;;5054897;28;20544;-77
2023/08/04 09:32:27;;;;;;;5.25;2.10;;;;;;;;;;5054723;28;20037;-77
2023/08/04 09:35:04;;;;;;;4.93;2.40;;;;;;;;;;5054468;28;20048;-77
2023/08/04 09:37:31;;;;;;;3.28;1.75;;;;;;;;;;5054255;28;20090;-77
2023/08/04 09:39:57;;;;;;;5.13;2.13;;;;;;;;;;5054318;28;20567;-77
2023/08/04 09:42:23;;;;;;;5.68;1.92;;;;;;;;;;5055511;28;20037;-77
2023/08/04 09:44:51;;;;;;;5.95;2.22;;;;;;;;;;5069076;28;20399;-77
2023/08/04 09:47:18;;;;;;;6.82;2.50;;;;;;;;;;5068063;28;20041;-77
2023/08/04 09:49:44;;;;;;;4.05;2.10;;;;;;;;;;5054528;28;20045;-77
2023/08/04 09:52:10;;;;;;;4.32;2.20;;;;;;;;;;5054232;28;20116;-77
2023/08/04 09:54:36;;;;;;;4.03;1.90;;;;;;;;;;5055450;28;20094;-79
2023/08/04 09:57:02;;;;;;;4.93;2.28;;;;;;;;;;5055278;28;20048;-79
2023/08/04 09:59:28;;;;;;;4.25;2.33;;;;;;;;;;5055651;28;20056;-77
2023/08/04 10:01:56;;;;;;;5.28;2.50;;;;;;;;;;5044271;28;20479;-78
2023/08/04 10:04:22;;;;;;;8.35;2.83;;;;;;;;;;5047619;28;20048;-77
2023/08/04 10:06:48;;;;;;;7.60;2.40;;;;;;;;;;5054919;28;20045;-78
2023/08/04 10:09:15;;;;;;;4.68;2.30;;;;;;;;;;5053852;28;20095;-78
2023/08/04 10:11:41;;;;;;;7.57;2.60;;;;;;;;;;5054455;28;20072;-79
2023/08/04 10:14:08;;;;;;;5.75;2.65;;;;;;;;;;5056356;28;20041;-77
2023/08/04 10:16:35;;;;;;;5.15;2.40;;;;;;;;;;5040629;28;20114;-77
2023/08/04 10:19:03;;;;;;;8.85;2.53;;;;;;;;;;5053623;28;20040;-77
2023/08/04 10:21:34;;;;;;;4.30;2.47;;;;;;;;;;5051875;28;20076;-77
2023/08/04 10:24:00;;;;;;;4.30;2.13;;;;;;;;;;5051697;28;20041;-77
2023/08/04 10:26:26;;;;;;;3.28;1.60;;;;;;;;;;5053298;28;20120;-77
2023/08/04 10:29:07;;;;;;;4.18;1.77;;;;;;;;;;5048199;28;20127;-77
2023/08/04 10:31:52;;;;;;;5.30;2.30;;;;;;;;;;5053282;28;20044;-77
2023/08/04 10:34:19;;;;;;;4.47;2.28;;;;;;;;;;5053171;28;20116;-77
2023/08/04 10:37:06;;;;;;;3.97;2.00;;;;;;;;;;5053622;28;20053;-77
2023/08/04 10:39:53;;;;;;;6.15;2.45;;;;;;;;;;5052822;28;20507;-77
2023/08/04 10:42:19;;;;;;;;;;;;;;;;;;5028495;28;20045;-78
2023/08/04 10:44:52;;;;;;;7.15;2.67;;;;;;;;;;5042281;28;19975;-77
2023/08/04 10:47:37;;;;;;;5.90;2.55;;;;;;;;;;5053358;28;20488;-77
2023/08/04 10:50:03;;;;;;;4.32;2.58;;;;;;;;;;5052856;28;20507;-77
2023/08/04 10:52:30;;;;;;;5.55;3.20;;;;;;;;;;5051071;28;20052;-77
2023/08/04 10:54:57;;;;;;;7.28;2.53;;;;;;;;;;5053166;28;20045;-77
2023/08/04 10:57:24;;;;;;;8.15;2.72;;;;;;;;;;5052641;28;20103;-78
2023/08/04 10:59:50;;;;;;;5.63;2.60;;;;;;;;;;5053078;28;20127;-77
2023/08/04 11:02:20;;;;;;;7.65;2.80;;;;;;;;;;5052790;28;20093;-78
2023/08/04 11:04:47;;;;;;;5.85;2.63;;;;;;;;;;5050242;28;20475;-78
2023/08/04 11:07:14;;;;;;;9.15;2.80;;;;;;;;;;5052941;28;20041;-78
2023/08/04 11:09:41;;;;;;;6.00;2.50;;;;;;;;;;5053138;28;20119;-78
2023/08/04 11:12:07;;;;;;;7.70;2.63;;;;;;;;;;5052660;28;20120;-78
2023/08/04 11:14:35;;;;;;;6.88;3.10;;;;;;;;;;5069922;28;20052;-78
2023/08/04 11:17:01;;;;;;;6.75;2.63;;;;;;;;;;5044253;28;20060;-78
2023/08/04 11:19:32;;;;;;;4.90;2.55;;;;;;;;;;5052948;28;20051;-78
2023/08/04 11:22:07;;;;;;;6.65;2.70;;;;;;;;;;5051464;28;20041;-78
2023/08/04 11:24:33;;;;;;;6.18;3.20;;;;;;;;;;5052444;28;20049;-78
2023/08/04 11:26:59;;;;;;;6.80;2.90;;;;;;;;;;5040209;28;20090;-78
2023/08/04 11:29:26;;;;;;;6.45;3.25;;;;;;;;;;5037114;28;20045;-78
2023/08/04 11:31:53;;;;;;;7.03;3.05;;;;;;;;;;5037762;28;20041;-77
2023/08/04 11:34:20;;;;;;;6.18;2.85;;;;;;;;;;5056169;28;20174;-78
2023/08/04 11:36:46;;;;;;;7.97;3.05;;;;;;;;;;5054434;28;20041;-78
2023/08/04 11:39:12;;;;;;;8.30;3.38;;;;;;;;;;5053588;28;20057;-78
2023/08/04 11:41:38;;;;;;;8.38;3.08;;;;;;;;;;5046364;28;20092;-81
2023/08/04 11:44:05;;;;;;;9.93;3.47;;;;;;;;;;5048709;28;20119;-78
2023/08/04 11:46:31;;;;;;;6.15;3.13;;;;;;;;;;5049699;28;20044;-78
2023/08/04 11:48:57;;;;;;;10.02;3.38;;;;;;;;;;5044384;28;20488;-78
2023/08/04 11:51:23;;;;;;;7.43;2.78;;;;;;;;;;5052696;28;20569;-78
2023/08/04 11:53:50;;;;;;;7.78;2.92;;;;;;;;;;5052549;28;20132;-78
2023/08/04 11:56:16;;;;;;;7.28;3.60;;;;;;;;;;5052450;28;20075;-77
2023/08/04 11:58:45;;;;;;;8.90;3.17;;;;;;;;;;5052378;28;20040;-77
2023/08/04 12:01:28;;;;;;;10.20;3.55;;;;;;;;;;5035619;28;20045;-77
2023/08/04 12:03:55;;;;;;;7.63;3.17;;;;;;;;;;5042051;28;20045;-78
2023/08/04 12:06:22;;;;;;;6.75;3.15;;;;;;;;;;5052728;28;20033;-78
2023/08/04 12:08:55;;;;;;;5.50;3.03;;;;;;;;;;5048995;28;20037;-77
2023/08/04 12:11:22;;;;;;;7.70;2.70;;;;;;;;;;5055500;28;20361;-77
2023/08/04 12:13:48;;;;;;;6.07;3.03;;;;;;;;;;5052366;28;20466;-77
2023/08/04 12:16:16;;;;;;;6.95;3.33;;;;;;;;;;5036110;28;20046;-77
2023/08/04 12:18:42;;;;;;;6.95;3.78;;;;;;;;;;5045842;28;20476;-77
2023/08/04 12:21:12;;;;;;;8.85;3.72;;;;;;;;;;5054938;28;20539;-77
2023/08/04 12:23:38;;;;;;;8.10;4.22;;;;;;;;;;5055189;28;20102;-77
2023/08/04 12:26:04;;;;;;;6.03;3.53;;;;;;;;;;5086853;28;20073;-78
2023/08/04 12:28:30;;;;;;;9.48;3.17;;;;;;;;;;5052330;28;20843;-78
2023/08/04 12:30:57;;;;;;;6.43;2.83;;;;;;;;;;5041434;28;20116;-78
2023/08/04 12:33:23;;;;;;;4.60;2.72;;;;;;;;;;5055819;28;20104;-78
2023/08/04 12:35:49;;;;;;;4.30;2.40;;;;;;;;;;5056057;28;20049;-78
2023/08/04 12:38:16;;;;;;;4.82;2.75;;;;;;;;;;5055657;28;20076;-77
2023/08/04 12:40:42;;;;;;;3.85;2.55;;;;;;;;;;5055831;28;20202;-78
2023/08/04 12:43:09;;;;;;;6.30;2.45;;;;;;;;;;5053172;28;20045;-78
2023/08/04 12:45:35;;;;;;;4.57;2.65;;;;;;;;;;5041485;28;20055;-77
2023/08/04 12:48:01;;;;;;;5.00;2.50;;;;;;;;;;5055899;28;20052;-77
2023/08/04 12:50:28;;;;;;;3.90;2.55;;;;;;;;;;5055152;28;20045;-77
2023/08/04 12:52:54;;;;;;;3.47;2.28;;;;;;;;;;5055609;28;20122;-77
2023/08/04 12:55:21;;;;;;;3.67;2.50;;;;;;;;;;5055005;28;20564;-77
2023/08/04 12:57:47;;;;;;;7.43;2.58;;;;;;;;;;5053693;28;20056;-77
2023/08/04 13:00:13;;;;;;;5.00;2.50;;;;;;;;;;5041912;28;20063;-77
2023/08/04 13:02:39;;;;;;;6.30;3.03;;;;;;;;;;5054970;28;20044;-77
2023/08/04 13:05:06;;;;;;;7.43;3.13;;;;;;;;;;5036916;28;20049;-77
2023/08/04 13:07:32;;;;;;;6.43;2.42;;;;;;;;;;5054758;28;20041;-78
2023/08/04 13:09:58;;;;;;;6.32;2.90;;;;;;;;;;5055181;28;20511;-77
2023/08/04 13:12:24;;;;;;;6.50;2.92;;;;;;;;;;5054390;28;20119;-78
2023/08/04 13:14:50;;;;;;;5.35;2.85;;;;;;;;;;5052510;28;20048;-77
2023/08/04 13:17:16;;;;;;;3.63;2.42;;;;;;;;;;5041092;28;20037;-78
2023/08/04 13:19:45;;;;;;;6.50;2.95;;;;;;;;;;5050399;28;20045;-78
2023/08/04 13:22:12;;;;;;;5.50;2.90;;;;;;;;;;5036244;28;20068;-78
2023/08/04 13:24:38;;;;;;;8.35;3.22;;;;;;;;;;5054651;28;20049;-78
2023/08/04 13:27:07;;;;;;;6.22;3.08;;;;;;;;;;5055054;28;20081;-78
2023/08/04 13:29:33;;;;;;;6.60;2.75;;;;;;;;;;5054733;28;20124;-78
2023/08/04 13:31:59;;;;;;;4.57;2.70;;;;;;;;;;5052981;28;20041;-78
2023/08/04 13:34:25;;;;;;;3.10;2.40;;;;;;;;;;5054239;28;20057;-78
2023/08/04 13:36:51;;;;;;;6.28;3.00;;;;;;;;;;5053487;28;20450;-78
2023/08/04 13:39:17;;;;;;;3.90;2.45;;;;;;;;;;5054967;28;20392;-78
2023/08/04 13:41:43;;;;;;;5.80;2.78;;;;;;;;;;5043327;28;20132;-78
2023/08/04 13:44:10;;;;;;;5.57;2.58;;;;;;;;;;5035103;28;20046;-78
2023/08/04 13:46:36;;;;;;;4.55;2.50;;;;;;;;;;5035335;28;20041;-78
2023/08/04 13:49:02;;;;;;;4.43;2.80;;;;;;;;;;5050461;28;20404;-78
2023/08/04 13:51:28;;;;;;;5.72;2.75;;;;;;;;;;5041911;28;20040;-78
2023/08/04 13:53:55;;;;;;;3.42;2.47;;;;;;;;;;5053940;28;20060;-78
2023/08/04 13:56:21;;;;;;;4.88;2.50;;;;;;;;;;5054070;28;20499;-78
2023/08/04 13:58:50;;;;;;;7.53;3.00;;;;;;;;;;5053855;28;20048;-78
2023/08/04 14:01:16;;;;;;;9.10;3.30;;;;;;;;;;5045675;28;20112;-78
2023/08/04 14:03:42;;;;;;;5.05;2.70;;;;;;;;;;5044733;28;20047;-79
2023/08/04 14:06:08;;;;;;;3.55;2.15;;;;;;;;;;5041228;28;20045;-78
2023/08/04 14:08:35;;;;;;;5.15;2.03;;;;;;;;;;5054018;28;20076;-78
2023/08/04 14:11:01;;;;;;;5.72;2.20;;;;;;;;;;5054296;28;20037;-78
2023/08/04 14:13:27;;;;;;;4.68;2.20;;;;;;;;;;5053058;28;20080;-78
2023/08/04 14:15:53;;;;;;;5.60;2.33;;;;;;;;;;5052851;28;20399;-78
2023/08/04 14:18:19;;;;;;;4.75;2.33;;;;;;;;;;5053190;28;20041;-78
2023/08/04 14:20:45;;;;;;;6.28;2.20;;;;;;;;;;5050282;28;20136;-78
2023/08/04 14:23:11;;;;;;;6.28;2.25;;;;;;;;;;5051978;28;20052;-78
2023/08/04 14:25:37;;;;;;;5.65;2.40;;;;;;;;;;5053631;28;20438;-78
2023/08/04 14:28:04;;;;;;;4.18;2.03;;;;;;;;;;5053597;28;20091;-78
2023/08/04 14:30:30;;;;;;;4.43;2.20;;;;;;;;;;5052087;28;20041;-78
2023/08/04 14:32:56;;;;;;;5.72;2.20;;;;;;;;;;5054028;28;20499;-78
2023/08/04 14:35:22;;;;;;;4.05;2.53;;;;;;;;;;5053979;28;20045;-78
2023/08/04 14:37:48;;;;;;;4.78;2.25;;;;;;;;;;5053465;28;20060;-78
2023/08/04 14:40:14;;;;;;;8.55;2.58;;;;;;;;;;5054553;28;20060;-78